Time;durP1;ratioP1;P1;durP2;ratioP2;P2;SDS_P1;SDS_P2;PMS_P1;PMS_P2;Temp;Humidity;BMP_temperature;BMP_pressure;BME280_temperature;BME280_humidity;BME280_pressure;Samples;Min_cycle;Max_cycle;Signal;HPM_P1;HPM_P2
2021/12/18 00:00:36;;;;;;;12.75;5.88;;;7.60;99.90;;;;;;5112213;27;20466;-71
2021/12/18 00:03:03;;;;;;;12.85;6.65;;;7.60;99.90;;;;;;5146062;27;20093;-71
2021/12/18 00:05:28;;;;;;;15.05;7.20;;;7.60;99.90;;;;;;5113036;27;20063;-71
2021/12/18 00:07:54;;;;;;;13.15;6.50;;;7.60;99.90;;;;;;5113482;27;20048;-71
2021/12/18 00:10:23;;;;;;;13.93;6.75;;;7.60;99.90;;;;;;5126226;27;20051;-71
2021/12/18 00:12:49;;;;;;;13.75;6.55;;;7.60;99.90;;;;;;5110919;27;20600;-71
2021/12/18 00:15:16;;;;;;;14.32;7.43;;;7.60;99.90;;;;;;5115231;27;20053;-71
2021/12/18 00:17:42;;;;;;;13.48;6.95;;;7.60;99.90;;;;;;5146619;27;20534;-71
2021/12/18 00:20:09;;;;;;;14.07;6.85;;;7.60;99.90;;;;;;5109428;27;20036;-71
2021/12/18 00:22:35;;;;;;;13.73;7.03;;;7.60;99.90;;;;;;5114867;27;20689;-71
2021/12/18 00:25:00;;;;;;;15.70;7.05;;;7.70;99.90;;;;;;5134979;27;20062;-71
2021/12/18 00:27:26;;;;;;;12.52;6.90;;;7.70;99.90;;;;;;5139747;27;20513;-71
2021/12/18 00:29:51;;;;;;;15.48;7.00;;;7.70;99.90;;;;;;5114584;27;20043;-71
2021/12/18 00:32:17;;;;;;;17.60;7.68;;;7.70;99.90;;;;;;5128115;27;20058;-70
2021/12/18 00:34:43;;;;;;;14.65;7.70;;;7.70;99.90;;;;;;5136976;27;20043;-71
2021/12/18 00:37:09;;;;;;;15.35;7.72;;;7.70;99.90;;;;;;5113431;27;20074;-71
2021/12/18 00:39:40;;;;;;;18.48;8.10;;;7.70;99.90;;;;;;5111831;27;20515;-71
2021/12/18 00:42:21;;;;;;;22.40;8.70;;;7.70;99.90;;;;;;5120987;27;20091;-71
2021/12/18 00:44:47;;;;;;;14.02;8.27;;;7.70;99.90;;;;;;5114291;27;20116;-71
2021/12/18 00:47:12;;;;;;;16.63;8.20;;;7.70;99.90;;;;;;5113053;27;20064;-71
2021/12/18 00:49:38;;;;;;;19.27;8.27;;;7.70;99.90;;;;;;5135977;27;20104;-71
2021/12/18 00:52:04;;;;;;;14.13;8.18;;;7.70;99.90;;;;;;5124176;27;20061;-71
2021/12/18 00:54:31;;;;;;;12.95;7.25;;;7.70;99.90;;;;;;5116728;27;20526;-71
2021/12/18 00:56:57;;;;;;;14.90;8.27;;;7.70;99.90;;;;;;5114122;27;20047;-71
2021/12/18 00:59:22;;;;;;;14.52;7.88;;;7.70;99.90;;;;;;5134333;27;20505;-71
2021/12/18 01:01:48;;;;;;;20.95;6.93;;;7.70;99.90;;;;;;5123752;27;20035;-71
2021/12/18 01:04:15;;;;;;;13.73;7.60;;;7.70;99.90;;;;;;5129561;27;20126;-71
2021/12/18 01:06:40;;;;;;;13.27;7.07;;;7.70;99.90;;;;;;5123197;27;20060;-71
2021/12/18 01:09:06;;;;;;;10.13;5.60;;;7.60;99.90;;;;;;5124348;27;20051;-71
2021/12/18 01:11:35;;;;;;;9.18;5.40;;;7.60;99.90;;;;;;5108263;27;20051;-71
2021/12/18 01:16:49;;;;;;;10.50;5.50;;;7.50;99.90;;;;;;5109645;28;20059;-71
2021/12/18 01:24:48;;;;;;;9.63;5.28;;;7.50;99.90;;;;;;5075720;27;20059;-71
2021/12/18 01:27:14;;;;;;;9.38;5.07;;;7.40;99.90;;;;;;5117580;27;20122;-70
2021/12/18 01:29:39;;;;;;;8.98;5.47;;;7.50;99.90;;;;;;5130383;27;20547;-70
2021/12/18 01:32:05;;;;;;;8.48;5.00;;;7.50;99.90;;;;;;5127233;27;20389;-70
2021/12/18 01:34:31;;;;;;;11.25;5.60;;;7.50;99.90;;;;;;5144634;27;20043;-70
2021/12/18 01:36:57;;;;;;;10.52;5.75;;;7.50;99.90;;;;;;5116032;27;20035;-70
2021/12/18 01:39:22;;;;;;;12.60;5.55;;;7.50;99.90;;;;;;5121943;27;20042;-71
2021/12/18 01:42:30;;;;;;;10.35;5.18;;;7.50;99.90;;;;;;5122314;27;20092;-70
2021/12/18 01:45:11;;;;;;;7.20;4.22;;;7.50;99.90;;;;;;5151850;27;20062;-70
2021/12/18 01:53:22;;;;;;;7.97;4.28;;;7.40;99.90;;;;;;5115851;27;20075;-71
2021/12/18 01:55:50;;;;;;;7.30;3.90;;;7.40;99.90;;;;;;5130316;27;20547;-70
2021/12/18 01:58:21;;;;;;;8.40;4.20;;;7.40;99.90;;;;;;5119120;27;20118;-71
2021/12/18 02:00:48;;;;;;;7.30;4.10;;;7.40;99.90;;;;;;5124803;27;20672;-70
2021/12/18 02:03:13;;;;;;;6.63;4.10;;;7.30;99.90;;;;;;5122242;27;20039;-70
2021/12/18 02:05:39;;;;;;;6.07;3.53;;;7.30;99.90;;;;;;5120020;27;20112;-70
2021/12/18 02:08:05;;;;;;;8.48;4.20;;;7.40;99.90;;;;;;5127107;27;20485;-70
2021/12/18 02:10:42;;;;;;;6.03;4.00;;;7.40;99.90;;;;;;5135503;27;20482;-70
2021/12/18 02:21:25;;;;;;;8.07;4.38;;;7.40;99.90;;;;;;5130150;27;20066;-70
2021/12/18 02:23:51;;;;;;;8.55;5.13;;;7.40;99.90;;;;;;5118425;27;20047;-71
2021/12/18 02:26:17;;;;;;;11.07;5.40;;;7.40;99.90;;;;;;5117288;27;20641;-71
2021/12/18 02:28:46;;;;;;;10.45;5.53;;;7.50;99.90;;;;;;5118493;27;20047;-70
2021/12/18 02:31:13;;;;;;;39.47;8.32;;;7.50;99.90;;;;;;5155647;27;20050;-70
2021/12/18 02:33:39;;;;;;;21.80;8.37;;;7.50;99.90;;;;;;5128721;27;20094;-71
2021/12/18 02:36:07;;;;;;;20.42;7.38;;;7.50;99.90;;;;;;5125370;27;20047;-71
2021/12/18 02:41:28;;;;;;;19.95;6.95;;;7.40;99.90;;;;;;5117944;27;20071;-71
2021/12/18 02:43:58;;;;;;;9.40;5.10;;;7.40;99.90;;;;;;5123928;27;20079;-71
2021/12/18 02:46:24;;;;;;;14.15;6.30;;;7.40;99.90;;;;;;5119123;27;20661;-71
2021/12/18 02:48:52;;;;;;;20.75;6.22;;;7.40;99.90;;;;;;5126562;27;20146;-71
2021/12/18 02:51:19;;;;;;;19.38;7.00;;;7.40;99.90;;;;;;5114625;27;20104;-71
2021/12/18 02:53:47;;;;;;;18.92;8.25;;;7.30;99.90;;;;;;5121190;27;20039;-71
2021/12/18 02:56:14;;;;;;;19.48;7.72;;;7.30;99.90;;;;;;5126325;27;20043;-71
2021/12/18 02:58:43;;;;;;;26.90;8.18;;;7.30;99.90;;;;;;5115959;27;20090;-71
2021/12/18 03:01:13;;;;;;;18.60;8.18;;;7.30;99.90;;;;;;5119665;27;20047;-71
2021/12/18 03:03:39;;;;;;;12.85;6.50;;;7.30;99.90;;;;;;5122513;27;20122;-71
2021/12/18 03:24:40;;;;;;;9.40;4.22;;;7.10;99.90;;;;;;5117041;27;20510;-71
2021/12/18 03:27:07;;;;;;;9.13;3.65;;;7.00;99.90;;;;;;5134959;27;20473;-71
2021/12/18 03:29:33;;;;;;;6.70;3.40;;;7.00;99.90;;;;;;5126165;27;20063;-71
2021/12/18 03:31:59;;;;;;;8.50;3.10;;;7.00;99.90;;;;;;5115767;27;20521;-71
2021/12/18 03:34:25;;;;;;;6.90;2.78;;;7.00;99.90;;;;;;5126007;27;20130;-71
2021/12/18 03:36:51;;;;;;;7.45;3.10;;;7.00;99.90;;;;;;5126406;27;20649;-71
2021/12/18 03:39:17;;;;;;;5.65;2.78;;;7.00;99.90;;;;;;5113838;27;20039;-71
2021/12/18 03:41:44;;;;;;;6.03;2.53;;;7.00;99.90;;;;;;5126781;27;20084;-71
2021/12/18 03:44:09;;;;;;;4.97;2.47;;;7.00;99.90;;;;;;5115713;27;20042;-71
2021/12/18 03:46:35;;;;;;;4.90;2.42;;;7.00;99.90;;;;;;5109477;27;20051;-71
2021/12/18 03:49:01;;;;;;;3.88;2.20;;;6.90;99.90;;;;;;5134451;27;20043;-71
2021/12/18 03:51:26;;;;;;;3.85;2.03;;;6.90;99.90;;;;;;5108395;27;20051;-69
2021/12/18 03:53:52;;;;;;;3.58;2.00;;;6.90;99.90;;;;;;5117066;27;20035;-71
2021/12/18 03:56:18;;;;;;;4.13;2.13;;;6.90;99.90;;;;;;5127852;27;20405;-70
2021/12/18 03:58:44;;;;;;;4.05;2.28;;;6.90;99.90;;;;;;5123213;27;20043;-71
2021/12/18 04:01:09;;;;;;;3.88;1.90;;;6.90;99.90;;;;;;5126344;27;20111;-71
2021/12/18 04:03:35;;;;;;;3.17;1.80;;;6.90;99.90;;;;;;5126319;27;20150;-71
2021/12/18 04:06:01;;;;;;;2.97;1.58;;;6.90;99.90;;;;;;5126766;27;20347;-71
2021/12/18 04:08:27;;;;;;;4.10;1.90;;;6.90;99.90;;;;;;5116954;27;20532;-71
2021/12/18 04:10:52;;;;;;;2.42;1.60;;;6.90;99.90;;;;;;5117637;27;20379;-71
2021/12/18 04:13:18;;;;;;;2.42;1.30;;;6.90;99.90;;;;;;5113623;27;20035;-71
2021/12/18 04:15:44;;;;;;;2.15;1.40;;;6.90;99.90;;;;;;5124505;27;20047;-71
2021/12/18 04:18:09;;;;;;;2.50;1.45;;;6.80;99.90;;;;;;5119973;27;20146;-71
2021/12/18 04:20:35;;;;;;;2.70;1.50;;;6.80;99.90;;;;;;5121468;27;20516;-71
2021/12/18 04:23:01;;;;;;;2.97;1.40;;;6.80;99.90;;;;;;5118491;27;20039;-71
2021/12/18 04:25:27;;;;;;;3.58;1.75;;;6.80;99.90;;;;;;5114132;27;20043;-71
2021/12/18 04:27:53;;;;;;;2.92;1.60;;;6.80;99.90;;;;;;5124320;27;20046;-71
2021/12/18 04:30:19;;;;;;;2.28;1.27;;;6.80;99.90;;;;;;5125553;27;20055;-71
2021/12/18 04:32:45;;;;;;;2.60;1.50;;;6.80;99.90;;;;;;5134217;27;20047;-71
2021/12/18 04:35:11;;;;;;;2.70;1.45;;;6.80;99.90;;;;;;5121211;27;20043;-71
2021/12/18 04:37:36;;;;;;;2.80;1.50;;;6.80;99.90;;;;;;5127277;27;20083;-71
2021/12/18 04:40:03;;;;;;;4.22;1.92;;;6.80;99.90;;;;;;5148819;27;20044;-71
2021/12/18 04:42:29;;;;;;;4.28;2.08;;;6.80;99.90;;;;;;5117571;27;20035;-71
2021/12/18 04:44:55;;;;;;;3.13;1.75;;;6.80;99.90;;;;;;5122987;27;20095;-71
2021/12/18 04:47:21;;;;;;;3.22;1.70;;;6.80;99.90;;;;;;5126176;27;20042;-71
2021/12/18 04:49:47;;;;;;;4.03;1.92;;;6.80;99.90;;;;;;5156176;27;20085;-71
2021/12/18 04:52:13;;;;;;;3.38;1.90;;;6.80;99.90;;;;;;5125792;27;20127;-71
2021/12/18 04:54:38;;;;;;;3.03;1.63;;;6.80;99.90;;;;;;5117411;27;20035;-70
2021/12/18 04:57:04;;;;;;;3.03;1.60;;;6.80;99.90;;;;;;5121477;27;20703;-70
2021/12/18 04:59:30;;;;;;;3.03;1.60;;;6.80;99.90;;;;;;5123194;27;20143;-71
2021/12/18 05:01:56;;;;;;;2.85;1.60;;;6.80;99.90;;;;;;5119937;27;20034;-71
2021/12/18 05:04:22;;;;;;;3.03;1.60;;;6.80;99.90;;;;;;5123518;27;20043;-71
2021/12/18 05:06:50;;;;;;;3.97;2.00;;;6.80;99.90;;;;;;5122266;27;20663;-70
2021/12/18 05:09:16;;;;;;;4.05;2.00;;;6.80;99.90;;;;;;5123042;27;20246;-71
2021/12/18 05:11:43;;;;;;;3.72;2.10;;;6.70;99.90;;;;;;5133663;27;20142;-71
2021/12/18 05:14:09;;;;;;;4.35;2.05;;;6.70;99.90;;;;;;5127246;27;20035;-71
2021/12/18 05:16:35;;;;;;;3.95;2.10;;;6.70;99.90;;;;;;5126843;27;20058;-71
2021/12/18 05:19:02;;;;;;;5.00;2.22;;;6.70;99.90;;;;;;5121124;27;20102;-71
2021/12/18 05:21:28;;;;;;;4.47;1.90;;;6.70;99.90;;;;;;5108743;28;20047;-71
2021/12/18 05:23:53;;;;;;;3.97;2.05;;;6.70;99.90;;;;;;5117559;27;20054;-71
2021/12/18 05:26:19;;;;;;;6.00;1.85;;;6.60;99.90;;;;;;5124864;27;20039;-71
2021/12/18 05:28:45;;;;;;;4.45;1.63;;;6.60;99.90;;;;;;5134140;27;20126;-71
2021/12/18 05:31:13;;;;;;;4.18;1.90;;;6.60;99.90;;;;;;5108382;27;20401;-71
2021/12/18 05:33:39;;;;;;;4.43;1.90;;;6.60;99.90;;;;;;5118540;27;20093;-71
2021/12/18 05:36:23;;;;;;;5.93;2.50;;;6.60;99.90;;;;;;5149816;27;20055;-71
2021/12/18 05:38:49;;;;;;;5.82;2.20;;;6.50;99.90;;;;;;5111218;27;20051;-71
2021/12/18 05:41:14;;;;;;;5.50;2.45;;;6.50;99.90;;;;;;5142588;27;20074;-71
2021/12/18 05:43:40;;;;;;;6.65;2.45;;;6.50;99.90;;;;;;5119726;27;20478;-70
2021/12/18 05:46:06;;;;;;;6.90;2.63;;;6.50;99.90;;;;;;5117872;27;20043;-71
2021/12/18 05:48:31;;;;;;;6.72;2.72;;;6.60;99.90;;;;;;5116764;27;20047;-71
2021/12/18 05:50:57;;;;;;;8.57;2.65;;;6.60;99.90;;;;;;5157005;27;20062;-71
2021/12/18 05:53:22;;;;;;;7.78;2.90;;;6.60;99.90;;;;;;5119362;27;20043;-71
2021/12/18 05:55:48;;;;;;;6.60;2.72;;;6.60;99.90;;;;;;5119158;27;20077;-71
2021/12/18 05:58:13;;;;;;;14.68;3.67;;;6.60;99.90;;;;;;5125042;27;20043;-71
2021/12/18 06:00:39;;;;;;;9.00;3.05;;;6.60;99.90;;;;;;5117235;27;20596;-71
2021/12/18 06:03:05;;;;;;;9.32;3.55;;;6.60;99.90;;;;;;5125660;28;20046;-71
2021/12/18 06:05:30;;;;;;;6.18;2.83;;;6.60;99.90;;;;;;5113198;27;20118;-71
2021/12/18 06:07:58;;;;;;;9.73;3.20;;;6.60;99.90;;;;;;5119957;27;20045;-71
2021/12/18 06:10:28;;;;;;;8.52;3.38;;;6.70;99.90;;;;;;5117635;27;20405;-71
2021/12/18 06:12:59;;;;;;;9.68;3.42;;;6.70;99.90;;;;;;5126332;27;20059;-70
2021/12/18 06:15:25;;;;;;;6.95;2.92;;;6.60;99.90;;;;;;5122268;27;20066;-71
2021/12/18 06:17:51;;;;;;;7.90;3.38;;;6.60;99.90;;;;;;5128792;27;20034;-71
2021/12/18 06:20:16;;;;;;;8.98;3.40;;;6.70;99.90;;;;;;5118655;27;20104;-71
2021/12/18 06:22:42;;;;;;;10.68;3.50;;;6.60;99.90;;;;;;5118963;27;20051;-71
2021/12/18 06:25:08;;;;;;;11.45;3.20;;;6.70;99.90;;;;;;5122656;27;20047;-71
2021/12/18 06:27:34;;;;;;;10.45;3.20;;;6.60;99.90;;;;;;5124919;27;20114;-72
2021/12/18 06:30:01;;;;;;;9.77;3.80;;;6.70;99.90;;;;;;5120856;27;20142;-72
2021/12/18 06:32:27;;;;;;;8.55;3.58;;;6.70;99.90;;;;;;5135386;27;20482;-72
2021/12/18 06:34:53;;;;;;;12.50;3.70;;;6.70;99.90;;;;;;5120535;27;20087;-72
2021/12/18 06:37:18;;;;;;;9.55;3.50;;;6.70;99.90;;;;;;5126176;27;20036;-72
2021/12/18 06:39:44;;;;;;;8.93;2.90;;;6.70;99.90;;;;;;5122875;27;20134;-71
2021/12/18 06:42:10;;;;;;;6.55;2.47;;;6.70;99.90;;;;;;5117060;27;20035;-71
2021/12/18 06:44:35;;;;;;;8.75;3.00;;;6.70;99.90;;;;;;5128824;27;20039;-71
2021/12/18 06:47:01;;;;;;;9.85;3.55;;;6.70;99.90;;;;;;5117483;27;20067;-71
2021/12/18 06:49:26;;;;;;;9.63;3.42;;;6.70;99.90;;;;;;5119389;27;20611;-71
2021/12/18 06:51:52;;;;;;;8.77;3.60;;;6.70;99.90;;;;;;5125458;27;20180;-71
2021/12/18 06:54:17;;;;;;;7.68;3.30;;;6.70;99.90;;;;;;5121501;27;20478;-71
2021/12/18 06:56:43;;;;;;;9.40;4.03;;;6.80;99.90;;;;;;5118622;27;20050;-71
2021/12/18 06:59:09;;;;;;;8.07;3.60;;;6.70;99.90;;;;;;5129335;27;20130;-71
2021/12/18 07:01:35;;;;;;;7.88;3.33;;;6.80;99.90;;;;;;5123158;27;20042;-72
2021/12/18 07:04:01;;;;;;;10.67;3.97;;;6.70;99.90;;;;;;5128561;27;20043;-71
2021/12/18 07:06:28;;;;;;;9.88;4.07;;;6.80;99.90;;;;;;5124105;27;20046;-73
2021/12/18 07:08:54;;;;;;;9.82;4.20;;;6.80;99.90;;;;;;5121051;27;20047;-72
2021/12/18 07:11:20;;;;;;;10.15;4.40;;;6.80;99.90;;;;;;5122477;27;20675;-70
2021/12/18 07:13:45;;;;;;;10.93;4.05;;;6.80;99.90;;;;;;5116284;27;20088;-70
2021/12/18 07:16:11;;;;;;;9.27;4.05;;;6.80;99.90;;;;;;5125223;27;20110;-71
2021/12/18 07:18:37;;;;;;;12.65;3.78;;;6.80;99.90;;;;;;5124755;27;20043;-71
2021/12/18 07:21:03;;;;;;;8.77;3.88;;;6.80;99.90;;;;;;5117809;27;20486;-71
2021/12/18 07:23:28;;;;;;;9.70;3.85;;;6.80;99.90;;;;;;5128139;27;20038;-71
2021/12/18 07:25:54;;;;;;;7.97;3.55;;;6.80;99.90;;;;;;5123509;27;20463;-71
2021/12/18 07:28:20;;;;;;;8.25;3.30;;;6.80;99.90;;;;;;5112654;27;20084;-72
2021/12/18 07:30:45;;;;;;;9.35;3.65;;;6.80;99.90;;;;;;5113920;27;20048;-71
2021/12/18 07:33:11;;;;;;;6.80;2.85;;;6.80;99.90;;;;;;5118418;27;20051;-71
2021/12/18 07:35:42;;;;;;;10.10;3.08;;;6.80;99.90;;;;;;5114066;27;20782;-71
2021/12/18 07:38:08;;;;;;;9.35;3.30;;;6.80;99.90;;;;;;5118755;27;20100;-71
2021/12/18 07:40:35;;;;;;;9.25;4.10;;;6.80;99.90;;;;;;5119735;27;20058;-71
2021/12/18 07:43:01;;;;;;;10.60;3.70;;;6.80;99.90;;;;;;5123588;27;20084;-71
2021/12/18 07:45:26;;;;;;;8.43;3.20;;;6.80;99.90;;;;;;5113205;27;20192;-71
2021/12/18 07:47:52;;;;;;;8.32;3.30;;;6.80;99.90;;;;;;5124162;27;20436;-71
2021/12/18 07:50:20;;;;;;;10.18;3.47;;;6.70;99.90;;;;;;5122425;27;20137;-71
2021/12/18 07:52:46;;;;;;;11.52;3.83;;;6.70;99.90;;;;;;5123741;27;20047;-71
2021/12/18 07:55:12;;;;;;;12.25;3.97;;;6.70;99.90;;;;;;5116300;27;20075;-71
2021/12/18 07:57:38;;;;;;;9.85;4.00;;;6.70;99.90;;;;;;5144869;27;20219;-71
2021/12/18 08:00:06;;;;;;;14.38;4.13;;;6.70;99.90;;;;;;5127284;27;20134;-71
2021/12/18 08:02:32;;;;;;;11.48;4.05;;;6.70;99.90;;;;;;5124302;27;20049;-71
2021/12/18 08:04:57;;;;;;;11.50;4.43;;;6.70;99.90;;;;;;5128538;27;20130;-71
2021/12/18 08:07:23;;;;;;;9.25;3.95;;;6.70;99.90;;;;;;5117080;27;20031;-71
2021/12/18 08:09:49;;;;;;;10.18;4.10;;;6.70;99.90;;;;;;5119573;27;20096;-71
2021/12/18 08:12:14;;;;;;;10.27;4.05;;;6.70;99.90;;;;;;5124152;27;20170;-71
2021/12/18 08:14:40;;;;;;;9.63;3.90;;;6.70;99.90;;;;;;5126103;27;20034;-70
2021/12/18 08:17:05;;;;;;;14.77;4.72;;;6.80;99.90;;;;;;5124995;27;20471;-71
2021/12/18 08:19:31;;;;;;;9.13;4.00;;;6.70;99.90;;;;;;5127735;27;20057;-71
2021/12/18 08:21:57;;;;;;;9.90;4.30;;;6.80;99.90;;;;;;5125814;27;20039;-71
2021/12/18 08:24:22;;;;;;;7.85;3.50;;;6.80;99.90;;;;;;5129234;27;20043;-71
2021/12/18 08:26:48;;;;;;;6.75;3.35;;;6.80;99.90;;;;;;5120794;27;20640;-71
2021/12/18 08:29:13;;;;;;;7.63;3.40;;;6.80;99.90;;;;;;5119888;27;20031;-71
2021/12/18 08:31:39;;;;;;;8.38;3.40;;;6.80;99.90;;;;;;5123981;27;20043;-71
2021/12/18 08:34:05;;;;;;;9.57;3.60;;;6.80;99.90;;;;;;5120741;27;20053;-71
2021/12/18 08:36:30;;;;;;;8.73;3.90;;;6.80;99.90;;;;;;5125896;27;20051;-71
2021/12/18 08:38:56;;;;;;;9.70;3.92;;;6.80;99.90;;;;;;5113168;27;20482;-71
2021/12/18 08:41:22;;;;;;;9.85;4.00;;;6.80;99.90;;;;;;5122970;27;20027;-71
2021/12/18 08:43:49;;;;;;;10.02;3.97;;;6.80;99.90;;;;;;5119451;27;20054;-71
2021/12/18 08:46:15;;;;;;;10.27;3.92;;;6.90;99.90;;;;;;5122157;27;20035;-71
2021/12/18 08:48:41;;;;;;;10.00;4.03;;;6.90;99.90;;;;;;5122369;27;20449;-71
2021/12/18 08:51:07;;;;;;;11.07;4.03;;;6.90;99.90;;;;;;5107001;27;20054;-70
2021/12/18 08:53:33;;;;;;;11.68;4.07;;;6.90;99.90;;;;;;5123916;27;20047;-71
2021/12/18 08:55:58;;;;;;;9.77;3.92;;;6.90;99.90;;;;;;5120421;27;20046;-71
2021/12/18 08:58:24;;;;;;;10.80;4.25;;;6.90;99.90;;;;;;5130672;27;20039;-71
2021/12/18 09:00:50;;;;;;;10.07;4.63;;;6.90;99.90;;;;;;5111084;28;20486;-70
2021/12/18 09:03:15;;;;;;;10.65;4.47;;;7.00;99.90;;;;;;5132377;27;20050;-70
2021/12/18 09:05:41;;;;;;;12.90;4.78;;;7.00;99.90;;;;;;5140477;27;20091;-70
2021/12/18 09:08:07;;;;;;;11.18;5.05;;;7.00;99.90;;;;;;5121999;27;20043;-71
2021/12/18 09:10:33;;;;;;;10.63;5.45;;;7.00;99.90;;;;;;5115452;27;20103;-71
2021/12/18 09:12:59;;;;;;;11.88;5.88;;;7.10;99.90;;;;;;5126531;27;20130;-72
2021/12/18 09:15:26;;;;;;;12.27;5.38;;;7.00;99.90;;;;;;5113594;28;20051;-71
2021/12/18 09:17:51;;;;;;;12.25;5.68;;;7.00;99.90;;;;;;5126538;28;20482;-72
2021/12/18 09:20:17;;;;;;;13.68;6.18;;;7.10;99.90;;;;;;5120174;27;20054;-70
2021/12/18 09:22:43;;;;;;;14.20;6.80;;;7.10;99.90;;;;;;5107730;28;20457;-70
2021/12/18 09:25:09;;;;;;;14.02;6.60;;;7.10;99.90;;;;;;5107662;28;20662;-69
2021/12/18 09:27:36;;;;;;;14.10;6.63;;;7.10;99.90;;;;;;5110482;28;20054;-69
2021/12/18 09:30:08;;;;;;;13.82;6.60;;;7.10;99.90;;;;;;5113761;28;20035;-70
2021/12/18 09:32:34;;;;;;;14.13;6.38;;;7.10;99.90;;;;;;5119166;28;20051;-72
2021/12/18 09:35:00;;;;;;;14.40;6.32;;;7.20;99.90;;;;;;5126361;27;20425;-71
2021/12/18 09:37:25;;;;;;;12.07;6.05;;;7.20;99.90;;;;;;5156699;27;20071;-71
2021/12/18 09:39:51;;;;;;;14.27;6.60;;;7.20;99.90;;;;;;5125992;27;20043;-72
2021/12/18 09:42:16;;;;;;;15.10;6.90;;;7.20;99.90;;;;;;5111116;28;20039;-71
2021/12/18 09:44:43;;;;;;;15.18;7.15;;;7.20;99.90;;;;;;5122125;27;20081;-72
2021/12/18 09:47:08;;;;;;;14.68;7.22;;;7.20;99.90;;;;;;5110409;27;20075;-73
2021/12/18 09:49:34;;;;;;;15.68;7.18;;;7.30;99.90;;;;;;5127734;27;20089;-72
2021/12/18 09:52:01;;;;;;;17.90;7.75;;;7.30;99.90;;;;;;5116255;27;20437;-72
2021/12/18 09:54:26;;;;;;;17.02;7.35;;;7.30;99.90;;;;;;5125742;27;20108;-70
2021/12/18 09:56:53;;;;;;;13.10;6.60;;;7.30;99.90;;;;;;5134936;27;20440;-71
2021/12/18 09:59:19;;;;;;;17.60;7.85;;;7.40;99.90;;;;;;5150099;27;20042;-71
2021/12/18 10:01:45;;;;;;;17.80;7.95;;;7.40;99.90;;;;;;5121615;27;20041;-70
2021/12/18 10:04:35;;;;;;;16.50;7.75;;;7.40;99.90;;;;;;5139385;27;20051;-70
2021/12/18 10:07:24;;;;;;;14.95;7.05;;;7.40;99.90;;;;;;5121398;27;20582;-70
2021/12/18 10:09:52;;;;;;;21.38;8.32;;;7.40;99.90;;;;;;5124872;27;20057;-70
2021/12/18 10:12:23;;;;;;;18.60;7.45;;;7.40;99.90;;;;;;5137003;27;20039;-70
2021/12/18 10:15:02;;;;;;;17.55;7.72;;;7.50;99.90;;;;;;5125713;27;20078;-70
2021/12/18 10:17:33;;;;;;;17.45;7.70;;;7.50;99.90;;;;;;5129695;27;20038;-70
2021/12/18 10:20:11;;;;;;;16.70;7.95;;;7.50;99.90;;;;;;5123739;27;20050;-70
2021/12/18 10:22:47;;;;;;;24.00;8.52;;;7.50;99.90;;;;;;5124743;27;20055;-70
2021/12/18 10:25:14;;;;;;;21.13;9.38;;;7.50;99.90;;;;;;5118922;27;20062;-70
2021/12/18 10:27:43;;;;;;;16.95;8.77;;;7.60;99.90;;;;;;5114301;27;20049;-71
2021/12/18 10:30:16;;;;;;;18.67;9.05;;;7.60;99.90;;;;;;5128543;27;20057;-71
2021/12/18 10:33:05;;;;;;;17.65;8.98;;;7.60;99.90;;;;;;5126948;27;20050;-70
2021/12/18 10:35:52;;;;;;;19.70;9.13;;;7.70;99.90;;;;;;5124820;27;20052;-69
2021/12/18 10:38:45;;;;;;;25.23;9.68;;;7.70;99.90;;;;;;5111040;27;20051;-70
2021/12/18 10:41:30;;;;;;;18.50;9.40;;;7.70;99.90;;;;;;5119570;27;20067;-70
2021/12/18 10:44:00;;;;;;;20.70;9.32;;;7.70;99.90;;;;;;5130542;27;20690;-69
2021/12/18 10:46:26;;;;;;;21.88;10.18;;;7.70;99.90;;;;;;5129442;27;20058;-69
2021/12/18 10:49:05;;;;;;;18.67;9.18;;;7.80;99.90;;;;;;5122018;27;20043;-70
2021/12/18 10:51:33;;;;;;;20.33;8.77;;;7.80;99.90;;;;;;5111018;28;20047;-70
2021/12/18 10:54:08;;;;;;;19.35;8.52;;;7.80;99.90;;;;;;5124905;27;20047;-68
2021/12/18 10:56:40;;;;;;;23.02;9.13;;;7.90;99.90;;;;;;5146950;27;20439;-69
2021/12/18 10:59:19;;;;;;;17.60;8.68;;;7.90;99.90;;;;;;5127784;27;20042;-69
2021/12/18 11:01:53;;;;;;;18.00;7.28;;;8.00;99.90;;;;;;5129563;27;20054;-69
2021/12/18 11:04:27;;;;;;;15.52;7.35;;;8.00;99.90;;;;;;5127944;27;20039;-69
2021/12/18 11:06:55;;;;;;;16.10;7.15;;;8.00;99.90;;;;;;5130179;27;20049;-69
2021/12/18 11:09:30;;;;;;;;;;;8.10;99.90;;;;;;5129228;27;20110;-69
2021/12/18 11:14:41;;;;;;;12.13;5.70;;;8.10;99.90;;;;;;5114094;27;20056;-70
2021/12/18 11:17:11;;;;;;;15.97;5.80;;;8.20;99.90;;;;;;5126834;27;20096;-71
2021/12/18 11:19:37;;;;;;;13.93;5.65;;;8.20;99.90;;;;;;5125604;27;20809;-70
2021/12/18 11:22:10;;;;;;;15.10;5.65;;;8.30;99.90;;;;;;5111703;27;20039;-71
2021/12/18 11:24:43;;;;;;;18.83;6.45;;;8.30;99.90;;;;;;5109177;28;20402;-71
2021/12/18 11:27:20;;;;;;;15.20;6.13;;;8.30;99.90;;;;;;5121578;27;20051;-70
2021/12/18 11:30:01;;;;;;;17.55;6.35;;;8.30;99.90;;;;;;5126595;27;20091;-71
2021/12/18 11:32:30;;;;;;;11.00;5.45;;;8.40;99.90;;;;;;5111987;27;20668;-71
2021/12/18 11:34:59;;;;;;;13.05;5.50;;;8.40;99.90;;;;;;5116671;27;20047;-70
2021/12/18 11:37:26;;;;;;;11.68;4.55;;;8.40;99.90;;;;;;5128533;27;20130;-69
2021/12/18 11:39:57;;;;;;;13.15;5.45;;;8.40;99.90;;;;;;5118250;27;20034;-71
2021/12/18 11:42:31;;;;;;;12.32;5.45;;;8.40;99.90;;;;;;5129354;27;20043;-71
2021/12/18 11:45:01;;;;;;;13.73;5.70;;;8.50;99.90;;;;;;5117278;27;20052;-71
2021/12/18 11:47:38;;;;;;;11.55;5.03;;;8.50;99.90;;;;;;5115980;27;20607;-71
2021/12/18 11:50:19;;;;;;;;;;;8.50;99.90;;;;;;5119708;27;20062;-71
2021/12/18 11:53:08;;;;;;;12.48;5.22;;;8.50;99.90;;;;;;5114792;27;19950;-69
2021/12/18 11:55:56;;;;;;;12.63;5.45;;;8.50;99.90;;;;;;5113378;27;20038;-71
2021/12/18 11:58:25;;;;;;;12.35;5.57;;;8.50;99.90;;;;;;5122316;27;20199;-70
2021/12/18 12:00:55;;;;;;;15.88;6.00;;;8.50;99.90;;;;;;5122390;27;20050;-69
2021/12/18 12:03:36;;;;;;;12.50;5.78;;;8.60;99.90;;;;;;5108901;28;20036;-68
2021/12/18 12:06:28;;;;;;;13.85;6.22;;;8.60;99.90;;;;;;5132309;27;20043;-70
2021/12/18 12:09:22;;;;;;;14.63;5.68;;;8.60;99.90;;;;;;5125060;27;20531;-69
2021/12/18 12:11:55;;;;;;;14.55;5.00;;;8.60;99.90;;;;;;5113392;27;20463;-69
2021/12/18 12:14:23;;;;;;;15.27;5.82;;;8.60;99.90;;;;;;5134671;27;20035;-70
2021/12/18 12:16:48;;;;;;;;;;;8.60;99.90;;;;;;5127855;27;20062;-70
2021/12/18 12:19:20;;;;;;;15.18;5.35;;;8.60;99.90;;;;;;5129249;27;19919;-70
2021/12/18 12:21:54;;;;;;;14.00;5.53;;;8.60;99.90;;;;;;5114059;27;20047;-69
2021/12/18 12:24:32;;;;;;;13.38;5.15;;;8.60;99.90;;;;;;5123882;27;20051;-68
2021/12/18 12:27:42;;;;;;;20.60;5.70;;;8.70;99.90;;;;;;5118634;27;20047;-70
2021/12/18 12:30:29;;;;;;;12.20;5.28;;;8.70;99.90;;;;;;5109416;27;20069;-76
2021/12/18 12:32:57;;;;;;;12.82;4.95;;;8.60;99.90;;;;;;5124434;27;20174;-73
2021/12/18 12:35:24;;;;;;;12.85;5.75;;;8.70;99.90;;;;;;5115389;27;20051;-71
2021/12/18 12:37:50;;;;;;;15.18;6.22;;;8.70;99.90;;;;;;5107509;27;20067;-70
2021/12/18 12:40:32;;;;;;;11.80;5.57;;;8.70;99.90;;;;;;5129420;27;20043;-68
2021/12/18 12:43:37;;;;;;;23.83;6.22;;;8.70;99.90;;;;;;5115675;27;20444;-68
2021/12/18 12:46:15;;;;;;;15.18;5.47;;;8.70;99.90;;;;;;5097132;27;20051;-69
2021/12/18 12:49:19;;;;;;;12.93;5.60;;;8.70;99.90;;;;;;5121974;27;20043;-69
2021/12/18 12:51:58;;;;;;;12.48;5.18;;;8.70;99.90;;;;;;5106801;28;20537;-69
2021/12/18 12:54:59;;;;;;;12.63;5.45;;;8.80;99.90;;;;;;5107308;28;20048;-68
2021/12/18 12:57:26;;;;;;;13.90;5.70;;;8.70;99.90;;;;;;5118758;27;20114;-69
2021/12/18 12:59:58;;;;;;;12.40;4.68;;;8.70;99.90;;;;;;5123167;27;20093;-69
2021/12/18 13:02:31;;;;;;;11.52;4.78;;;8.80;99.90;;;;;;5128180;27;20103;-69
2021/12/18 13:05:00;;;;;;;10.25;4.40;;;8.70;99.90;;;;;;5113623;27;20041;-68
2021/12/18 13:07:26;;;;;;;8.75;3.95;;;8.70;99.90;;;;;;5116640;27;20147;-71
2021/12/18 13:09:52;;;;;;;10.48;4.07;;;8.80;99.90;;;;;;5108098;27;20043;-69
2021/12/18 13:12:17;;;;;;;9.52;3.83;;;8.70;99.90;;;;;;5108553;28;20071;-68
2021/12/18 13:14:44;;;;;;;11.65;4.43;;;8.70;99.90;;;;;;5107436;28;20066;-69
2021/12/18 13:17:20;;;;;;;11.07;4.22;;;8.80;99.90;;;;;;5107423;28;20454;-69
2021/12/18 13:20:05;;;;;;;11.93;4.40;;;8.70;99.90;;;;;;5143202;27;20379;-68
2021/12/18 13:22:33;;;;;;;8.98;4.53;;;8.80;99.90;;;;;;5107934;28;20069;-69
2021/12/18 13:25:15;;;;;;;10.02;3.80;;;8.80;99.90;;;;;;5114063;28;20042;-70
2021/12/18 13:28:03;;;;;;;10.13;3.80;;;8.80;99.90;;;;;;5119255;27;20035;-70
2021/12/18 13:30:33;;;;;;;12.10;3.78;;;8.80;99.90;;;;;;5119900;27;20046;-70
2021/12/18 13:33:05;;;;;;;10.60;3.65;;;8.80;99.90;;;;;;5126906;28;20062;-70
2021/12/18 13:35:33;;;;;;;13.55;3.97;;;8.80;99.90;;;;;;5126735;28;20063;-70
2021/12/18 13:38:00;;;;;;;11.15;3.25;;;8.80;99.90;;;;;;5126561;27;20043;-70
2021/12/18 13:40:28;;;;;;;10.57;4.00;;;8.80;99.90;;;;;;5128452;28;20039;-70
2021/12/18 13:43:13;;;;;;;;;;;8.80;99.90;;;;;;5126206;28;20050;-70
2021/12/18 13:45:49;;;;;;;11.00;3.92;;;8.70;99.90;;;;;;5126997;27;19965;-70
2021/12/18 13:48:16;;;;;;;7.10;3.63;;;8.70;99.90;;;;;;5126564;28;20162;-70